createdAt,value
2023-06-04T00:09:21.822Z,45.20
2023-06-04T00:19:22.395Z,46.03
2023-06-04T00:29:22.935Z,46.67
2023-06-04T00:39:23.508Z,47.08
2023-06-04T00:49:24.075Z,47.81
2023-06-04T00:59:24.611Z,48.63
2023-06-04T01:09:25.174Z,49.44
2023-06-04T01:19:25.728Z,49.87
2023-06-04T01:29:26.284Z,50.48
2023-06-04T01:39:26.844Z,51.53
2023-06-04T01:49:27.410Z,51.76
2023-06-04T01:59:27.963Z,52.37
2023-06-04T02:09:28.501Z,52.47
2023-06-04T02:19:28.985Z,52.67
2023-06-04T02:29:29.502Z,53.72
2023-06-04T02:39:30.024Z,53.92
2023-06-04T02:49:30.524Z,54.36
2023-06-04T02:59:31.011Z,54.67
2023-06-04T03:09:31.503Z,55.18
2023-06-04T03:19:32.062Z,55.08
2023-06-04T03:29:32.908Z,55.79
2023-06-04T03:39:33.379Z,55.58
2023-06-04T03:49:33.941Z,55.56
2023-06-04T03:59:34.450Z,56.27
2023-06-04T04:09:35.026Z,56.17
2023-06-04T04:19:35.558Z,56.27
2023-06-04T04:29:36.099Z,56.04
2023-06-04T04:39:36.617Z,55.07
2023-06-04T04:49:44.127Z,49.03
2023-06-04T04:59:37.625Z,45.65
2023-06-04T05:09:38.118Z,44.60
2023-06-04T05:19:38.620Z,43.23
2023-06-04T05:29:39.136Z,41.97
2023-06-04T05:39:39.636Z,41.22
2023-06-04T05:49:40.144Z,41.33
2023-06-04T05:59:40.650Z,42.05
2023-06-04T06:09:41.146Z,41.97
2023-06-04T06:19:41.665Z,41.39
2023-06-04T06:29:42.163Z,40.96
2023-06-04T06:39:42.658Z,37.93
2023-06-04T06:49:43.158Z,36.79
2023-06-04T06:59:43.659Z,34.67
2023-06-04T07:09:44.185Z,35.68
2023-06-04T07:19:44.684Z,34.45
2023-06-04T07:29:45.176Z,34.54
2023-06-04T07:39:45.675Z,32.11
2023-06-04T07:49:58.463Z,31.91
2023-06-04T07:59:47.604Z,32.11
2023-06-04T08:09:47.112Z,31.40
2023-06-04T08:19:47.592Z,31.39
2023-06-04T08:29:48.094Z,31.27
2023-06-04T08:39:48.653Z,30.07
2023-06-04T08:49:49.178Z,30.87
2023-06-04T08:59:49.705Z,28.92
2023-06-04T09:09:57.579Z,28.82
2023-06-04T09:19:52.048Z,28.72
2023-06-04T09:29:51.594Z,28.72
2023-06-04T09:39:52.058Z,28.30
2023-06-04T09:49:52.557Z,27.99
2023-06-04T09:59:53.033Z,27.59
2023-06-04T10:09:53.528Z,27.37
2023-06-04T10:19:54.070Z,27.25
2023-06-04T10:29:54.579Z,27.36
2023-06-04T10:39:55.085Z,27.65
2023-06-04T10:50:02.595Z,26.52
2023-06-04T10:59:56.087Z,26.92
2023-06-04T11:09:56.595Z,26.62
2023-06-04T11:19:57.170Z,25.51
2023-06-04T11:29:57.683Z,25.18
2023-06-04T11:39:58.190Z,25.38
2023-06-04T11:49:58.725Z,24.77
2023-06-04T11:59:59.218Z,23.88
2023-06-04T12:09:59.777Z,23.88
2023-06-04T12:20:00.300Z,23.30
2023-06-04T12:30:00.825Z,24.26
2023-06-04T12:40:01.330Z,23.24
2023-06-04T12:50:01.833Z,22.95
2023-06-04T13:00:02.303Z,22.76
2023-06-04T13:10:02.809Z,23.25
2023-06-04T13:20:03.319Z,22.65
2023-06-04T13:30:03.935Z,23.16
2023-06-04T13:40:04.393Z,22.44
2023-06-04T13:50:04.909Z,22.45
2023-06-04T14:00:05.407Z,22.75
2023-06-04T14:10:05.902Z,23.05
2023-06-04T14:20:06.428Z,23.94
2023-06-04T14:30:06.954Z,24.92
2023-06-04T14:40:07.450Z,24.05
2023-06-04T14:50:07.947Z,24.56
2023-06-04T15:00:08.530Z,25.15
2023-06-04T15:10:08.981Z,25.35
2023-06-04T15:20:09.495Z,25.45
2023-06-04T15:30:10.007Z,25.46
2023-06-04T15:40:10.512Z,25.35
2023-06-04T15:50:11.009Z,25.95
2023-06-04T16:00:11.532Z,25.95
2023-06-04T16:10:12.042Z,27.04
2023-06-04T16:20:12.536Z,26.34
2023-06-04T16:30:13.071Z,25.96
2023-06-04T16:40:13.600Z,26.56
2023-06-04T16:50:22.118Z,27.15
2023-06-04T17:00:26.294Z,28.07
2023-06-04T17:10:16.471Z,28.27
2023-06-04T17:20:15.969Z,28.27
2023-06-04T17:30:16.469Z,28.27
2023-06-04T17:40:16.992Z,28.27
2023-06-04T17:50:17.500Z,28.57
2023-06-04T18:00:18.014Z,28.17
2023-06-04T18:10:18.512Z,28.37
2023-06-04T18:20:19.004Z,28.59
2023-06-04T18:30:19.519Z,28.42
2023-06-04T18:40:20.010Z,28.74
2023-06-04T18:50:20.510Z,29.34
2023-06-04T19:00:21.015Z,30.57
2023-06-04T19:10:21.514Z,31.59
2023-06-04T19:20:22.019Z,32.40
2023-06-04T19:30:22.541Z,33.62
2023-06-04T19:40:23.029Z,34.96
2023-06-04T19:50:23.534Z,35.78
2023-06-04T20:00:24.042Z,36.20
2023-06-04T20:10:24.548Z,36.62
2023-06-04T20:20:25.108Z,36.94
2023-06-04T20:30:25.691Z,38.35
2023-06-04T20:40:26.276Z,38.47
2023-06-04T20:50:26.854Z,38.07
2023-06-04T21:00:27.426Z,38.48
2023-06-04T21:10:27.983Z,38.48
2023-06-04T21:20:28.530Z,39.01
2023-06-04T21:30:29.087Z,39.43
2023-06-04T21:40:29.649Z,40.14
2023-06-04T21:50:30.205Z,40.16
2023-06-04T22:00:30.763Z,41.28
2023-06-04T22:10:31.320Z,41.69
2023-06-04T22:20:31.867Z,42.52
2023-06-04T22:30:32.409Z,43.04
2023-06-04T22:40:32.973Z,43.55
2023-06-04T22:50:33.525Z,43.77
2023-06-04T23:00:41.120Z,44.48
2023-06-04T23:10:34.632Z,44.70
2023-06-04T23:20:35.183Z,44.80
2023-06-04T23:30:35.730Z,45.63
2023-06-04T23:40:36.282Z,46.36
2023-06-04T23:50:36.857Z,46.59
